Time;durP1;ratioP1;P1;durP2;ratioP2;P2;SDS_P1;SDS_P2;PMS_P1;PMS_P2;Temp;Humidity;BMP_temperature;BMP_pressure;BME280_temperature;BME280_humidity;BME280_pressure;Samples;Min_cycle;Max_cycle;Signal;HPM_P1;HPM_P2
2023/06/07 00:02:00;;;;;;;;;17.75;13.00;;;;;22.62;51.35;101237.13;6277828;22;45283;-78
2023/06/07 00:04:26;;;;;;;;;13.25;12.75;;;;;22.47;50.95;101220.09;6277981;22;45252;-78
2023/06/07 00:06:56;;;;;;;;;13.75;12.25;;;;;22.50;51.54;101237.09;6277594;22;45260;-78
2023/06/07 00:09:22;;;;;;;;;12.50;11.25;;;;;22.28;51.78;101207.00;6249667;22;47983;-78
2023/06/07 00:11:47;;;;;;;;;15.50;14.25;;;;;22.33;51.60;101218.44;6277822;22;45303;-78
2023/06/07 00:14:13;;;;;;;;;9.75;7.00;;;;;22.37;51.44;101241.72;6277735;22;45291;-79
2023/06/07 00:16:38;;;;;;;;;13.50;12.00;;;;;22.12;51.86;101213.56;6277037;22;45594;-78
2023/06/07 00:19:03;;;;;;;;;15.25;12.50;;;;;22.10;51.81;101225.53;6277906;22;45367;-78
2023/06/07 00:21:30;;;;;;;;;12.50;10.25;;;;;21.89;51.98;101207.09;6277816;22;45165;-79
2023/06/07 00:23:55;;;;;;;;;14.00;13.00;;;;;21.99;52.42;101223.63;6249872;22;45465;-78
2023/06/07 00:26:20;;;;;;;;;11.25;9.25;;;;;22.00;52.70;101233.50;6248750;22;45279;-79
2023/06/07 00:28:46;;;;;;;;;11.25;9.25;;;;;21.94;52.17;101225.81;6277628;22;45248;-78
2023/06/07 00:31:11;;;;;;;;;16.25;13.75;;;;;22.10;52.56;101252.72;6277536;22;49236;-79
2023/06/07 00:33:36;;;;;;;;;14.50;14.25;;;;;22.04;53.00;101237.75;6250026;22;45268;-79
2023/06/07 00:36:02;;;;;;;;;14.75;12.00;;;;;21.92;52.67;101231.34;6277869;22;45536;-79
2023/06/07 00:38:27;;;;;;;;;13.25;12.75;;;;;21.86;52.64;101226.34;6276807;22;46165;-79
2023/06/07 00:40:53;;;;;;;;;14.50;12.00;;;;;21.77;52.94;101227.88;6250166;22;45285;-79
2023/06/07 00:43:18;;;;;;;;;12.25;11.75;;;;;21.92;52.95;101254.91;6278108;22;45244;-79
2023/06/07 00:45:43;;;;;;;;;11.00;11.00;;;;;21.68;52.88;101214.94;6250102;22;45527;-79
2023/06/07 00:48:10;;;;;;;;;10.75;9.75;;;;;21.62;52.45;101212.69;6277347;22;45391;-79
2023/06/07 00:50:35;;;;;;;;;14.50;13.50;;;;;21.62;52.48;101215.41;6277658;22;45307;-79
2023/06/07 00:53:02;;;;;;;;;12.75;12.75;;;;;21.76;53.08;101238.88;6277595;22;45336;-79
2023/06/07 00:55:28;;;;;;;;;12.50;12.00;;;;;21.53;53.05;101210.63;6277509;22;45442;-79
2023/06/07 00:57:54;;;;;;;;;16.00;13.75;;;;;21.57;53.34;101214.88;6249580;22;47889;-78
2023/06/07 01:00:20;;;;;;;;;18.25;15.00;;;;;21.63;52.95;101234.31;6277551;22;45259;-80
2023/06/07 01:02:46;;;;;;;;;17.50;14.00;;;;;21.46;53.64;101229.16;6277894;22;45367;-80
2023/06/07 01:05:12;;;;;;;;;21.00;16.25;;;;;21.34;53.36;101225.47;6277704;22;45253;-80
2023/06/07 01:07:38;;;;;;;;;18.00;13.00;;;;;21.10;53.52;101193.63;6248797;22;47048;-79
2023/06/07 01:10:05;;;;;;;;;12.25;11.00;;;;;21.17;54.07;101217.66;6249443;22;45257;-79
2023/06/07 01:12:34;;;;;;;;;19.00;14.00;;;;;21.07;54.45;101220.97;6249801;22;45327;-80
2023/06/07 01:15:00;;;;;;;;;13.75;12.75;;;;;20.93;54.78;101204.78;6277229;22;45423;-79
2023/06/07 01:17:28;;;;;;;;;14.75;14.00;;;;;21.01;54.10;101215.97;6277051;22;45394;-79
2023/06/07 01:19:55;;;;;;;;;18.00;14.75;;;;;21.00;54.45;101214.25;6277198;22;45181;-79
2023/06/07 01:22:24;;;;;;;;;17.75;14.75;;;;;21.01;54.35;101234.97;6277318;22;45328;-78
2023/06/07 01:24:50;;;;;;;;;16.00;14.75;;;;;20.75;54.49;101190.66;6276991;22;45512;-79
2023/06/07 01:27:17;;;;;;;;;18.00;17.00;;;;;21.03;54.80;101235.75;6276625;22;46489;-79
2023/06/07 01:29:44;;;;;;;;;16.00;13.50;;;;;20.87;54.88;101214.22;6277173;22;45515;-79
2023/06/07 01:32:12;;;;;;;;;18.00;15.75;;;;;20.79;55.21;101207.56;6249554;22;45409;-79
2023/06/07 01:34:39;;;;;;;;;16.50;14.75;;;;;20.67;54.75;101185.72;6277355;22;45331;-79
2023/06/07 01:37:05;;;;;;;;;13.75;12.75;;;;;20.63;54.95;101189.63;6276660;22;45184;-79
2023/06/07 01:39:32;;;;;;;;;16.25;12.75;;;;;20.63;55.75;101200.47;6277215;22;45522;-79
2023/06/07 01:41:59;;;;;;;;;18.00;16.75;;;;;20.36;55.18;101170.63;6277463;22;45381;-79
2023/06/07 01:44:25;;;;;;;;;14.50;14.00;;;;;20.50;55.28;101203.09;6277132;22;45445;-79
2023/06/07 01:46:51;;;;;;;;;16.00;14.75;;;;;20.68;55.64;101232.69;6277048;22;46251;-79
2023/06/07 01:49:19;;;;;;;;;17.00;14.25;;;;;20.53;55.78;101210.16;6277141;22;45468;-79
2023/06/07 01:51:44;;;;;;;;;18.00;16.25;;;;;20.45;55.86;101199.84;6277174;22;45244;-79
2023/06/07 01:54:10;;;;;;;;;15.50;14.50;;;;;20.49;55.82;101209.50;6276753;22;45407;-79
2023/06/07 01:57:11;;;;;;;;;17.25;15.00;;;;;20.62;55.66;101228.53;6277020;22;46034;-79
2023/06/07 02:00:02;;;;;;;;;13.25;13.25;;;;;20.63;55.67;101229.44;6226373;22;45411;-79
2023/06/07 02:02:34;;;;;;;;;16.50;15.75;;;;;20.63;55.78;101221.28;6249349;22;45388;-79
2023/06/07 02:05:25;;;;;;;;;16.00;15.75;;;;;20.60;55.78;101213.31;6277123;22;45438;-79
2023/06/07 02:07:53;;;;;;;;;13.00;11.75;;;;;20.21;55.67;101158.94;6222958;22;48117;-79
2023/06/07 02:10:28;;;;;;;;;15.25;13.25;;;;;20.52;55.33;101217.44;6276521;22;45397;-79
2023/06/07 02:12:55;;;;;;;;;17.75;16.25;;;;;20.50;55.83;101215.81;6277217;22;45358;-79
2023/06/07 02:15:21;;;;;;;;;18.50;17.50;;;;;20.26;55.90;101183.91;6248945;22;45275;-79
2023/06/07 02:17:57;;;;;;;;;15.25;14.25;;;;;20.23;56.13;101188.66;6276636;22;45256;-80
2023/06/07 02:20:25;;;;;;;;;17.75;15.00;;;;;20.14;55.88;101172.03;6248856;22;45364;-79
2023/06/07 02:22:51;;;;;;;;;18.00;15.75;;;;;20.07;56.22;101175.28;6276665;22;45335;-80
2023/06/07 02:25:16;;;;;;;;;20.25;18.00;;;;;20.05;56.70;101174.50;6276808;22;45388;-79
2023/06/07 02:27:42;;;;;;;;;17.75;14.25;;;;;20.15;56.85;101208.16;6248394;22;46793;-79
2023/06/07 02:30:07;;;;;;;;;21.50;16.25;;;;;19.91;56.50;101175.38;6276688;22;45956;-80
2023/06/07 02:32:33;;;;;;;;;18.00;14.25;;;;;19.88;56.61;101176.47;6249328;22;45380;-79
2023/06/07 02:34:59;;;;;;;;;17.75;16.00;;;;;20.04;57.09;101198.00;6249028;22;45368;-79
2023/06/07 02:37:24;;;;;;;;;19.00;16.25;;;;;19.97;57.15;101191.25;6276192;22;45311;-79
2023/06/07 02:39:50;;;;;;;;;13.25;12.75;;;;;19.82;56.84;101165.16;6278086;22;45196;-79
2023/06/07 02:42:15;;;;;;;;;17.25;15.00;;;;;19.83;56.93;101173.19;6278571;22;45745;-79
2023/06/07 02:44:40;;;;;;;;;16.75;16.00;;;;;19.79;56.78;101166.22;6277936;22;46904;-79
2023/06/07 02:47:06;;;;;;;;;16.00;14.75;;;;;19.90;57.10;101169.09;6277898;22;45278;-79
2023/06/07 02:49:31;;;;;;;;;14.75;13.25;;;;;20.10;56.74;101205.75;6278376;22;45192;-80
2023/06/07 02:51:56;;;;;;;;;18.75;17.00;;;;;19.86;57.02;101163.97;6278129;22;45266;-79
2023/06/07 02:54:21;;;;;;;;;17.00;14.00;;;;;19.87;56.92;101174.72;6278351;22;45319;-79
2023/06/07 02:56:47;;;;;;;;;16.00;14.25;;;;;20.03;56.82;101192.69;6278032;22;45422;-79
2023/06/07 02:59:12;;;;;;;;;16.75;14.25;;;;;20.01;56.99;101194.63;6278364;22;45237;-79
2023/06/07 03:01:38;;;;;;;;;15.75;14.50;;;;;19.96;57.04;101184.97;6278502;22;45189;-79
2023/06/07 03:04:03;;;;;;;;;17.25;17.25;;;;;19.74;56.75;101149.34;6249985;22;45474;-79
2023/06/07 03:06:29;;;;;;;;;16.50;15.00;;;;;19.85;56.88;101173.94;6250266;22;47187;-79
2023/06/07 03:08:56;;;;;;;;;18.75;18.25;;;;;20.05;57.00;101209.72;6249588;22;45955;-79
2023/06/07 03:11:22;;;;;;;;;19.25;17.75;;;;;19.97;56.92;101199.38;6278176;22;45345;-79
2023/06/07 03:13:47;;;;;;;;;18.25;17.25;;;;;19.99;57.13;101206.44;6278055;22;45662;-79
2023/06/07 03:16:12;;;;;;;;;15.50;14.25;;;;;19.76;57.27;101172.72;6277871;22;45272;-79
2023/06/07 03:18:38;;;;;;;;;15.25;14.50;;;;;19.67;57.43;101166.97;6277840;22;45402;-79
2023/06/07 03:21:03;;;;;;;;;19.75;17.25;;;;;19.75;56.99;101189.06;6250154;22;45440;-79
2023/06/07 03:23:30;;;;;;;;;22.00;19.00;;;;;19.73;57.29;101189.13;6249041;22;45320;-80
2023/06/07 03:25:57;;;;;;;;;18.50;16.50;;;;;19.59;57.36;101179.16;6278118;22;46388;-80
2023/06/07 03:28:22;;;;;;;;;20.25;18.25;;;;;19.70;57.63;101208.28;6277497;22;45484;-80
2023/06/07 03:30:48;;;;;;;;;22.50;20.00;;;;;19.53;57.71;101167.84;6278275;22;45186;-81
2023/06/07 03:33:13;;;;;;;;;19.25;17.00;;;;;19.42;57.41;101166.69;6250362;22;45524;-81
2023/06/07 03:35:39;;;;;;;;;14.50;14.25;;;;;19.53;57.73;101192.19;6250598;22;46893;-80
2023/06/07 03:38:05;;;;;;;;;22.25;16.00;;;;;19.25;57.88;101156.06;6249566;22;45563;-80
2023/06/07 03:40:30;;;;;;;;;19.75;19.25;;;;;19.50;57.88;101198.69;6250627;22;45334;-81
2023/06/07 03:42:56;;;;;;;;;16.75;16.75;;;;;19.30;57.89;101162.06;6277548;22;45493;-80
2023/06/07 03:45:21;;;;;;;;;23.00;20.50;;;;;19.19;57.92;101151.88;6277428;22;51878;-80
2023/06/07 03:47:46;;;;;;;;;23.00;18.75;;;;;19.20;58.19;101163.59;6249916;22;45324;-80
2023/06/07 03:50:13;;;;;;;;;22.75;19.25;;;;;19.15;58.28;101158.47;6250079;22;45340;-80
2023/06/07 03:52:38;;;;;;;;;22.50;20.50;;;;;19.38;58.37;101197.63;6249836;22;46060;-80
2023/06/07 03:55:04;;;;;;;;;21.50;18.25;;;;;19.36;58.60;101198.69;6277848;22;46566;-80
2023/06/07 03:57:29;;;;;;;;;19.75;17.75;;;;;19.32;58.37;101192.59;6277167;22;45255;-80
2023/06/07 03:59:56;;;;;;;;;17.75;17.50;;;;;19.34;58.23;101200.63;6278109;22;45240;-80
2023/06/07 04:02:22;;;;;;;;;18.00;16.25;;;;;19.06;58.84;101159.91;6277881;22;45430;-81
2023/06/07 04:04:47;;;;;;;;;23.25;20.50;;;;;19.26;58.48;101198.38;6278156;22;45319;-80
2023/06/07 04:07:12;;;;;;;;;19.50;18.50;;;;;19.03;58.84;101173.63;6277480;22;45271;-81
2023/06/07 04:09:39;;;;;;;;;22.75;17.50;;;;;19.17;58.68;101194.41;6250018;22;45383;-80
2023/06/07 04:12:06;;;;;;;;;21.25;16.50;;;;;18.88;58.45;101148.38;6277686;22;45437;-81
2023/06/07 04:14:31;;;;;;;;;21.50;18.75;;;;;19.12;58.97;101188.41;6277922;22;46460;-80
2023/06/07 04:16:56;;;;;;;;;23.00;18.25;;;;;18.90;58.83;101150.97;6277369;22;45350;-80
2023/06/07 04:19:22;;;;;;;;;24.75;22.00;;;;;19.12;58.92;101192.94;6278269;22;45322;-81
2023/06/07 04:21:47;;;;;;;;;20.50;19.50;;;;;19.06;58.74;101199.59;6275622;22;45457;-80
2023/06/07 04:24:12;;;;;;;;;18.50;17.50;;;;;19.05;59.06;101204.13;6277979;22;45281;-80
2023/06/07 04:26:38;;;;;;;;;24.75;20.50;;;;;18.91;59.10;101179.78;6249932;22;45390;-80
2023/06/07 04:29:04;;;;;;;;;22.75;18.00;;;;;18.86;59.26;101179.16;6250275;22;45335;-80
2023/06/07 04:31:29;;;;;;;;;18.75;15.25;;;;;19.08;59.34;101219.34;6250309;22;45449;-81
2023/06/07 04:34:01;;;;;;;;;23.25;20.00;;;;;19.05;59.32;101208.69;6249880;22;48414;-80
2023/06/07 04:36:28;;;;;;;;;27.25;24.00;;;;;18.87;58.97;101173.66;6249389;22;45607;-80
2023/06/07 04:38:55;;;;;;;;;22.75;19.75;;;;;18.97;58.95;101201.03;6277353;22;45375;-81
2023/06/07 04:41:28;;;;;;;;;25.25;21.50;;;;;18.82;59.40;101175.75;6249919;22;45504;-81
2023/06/07 04:43:54;;;;;;;;;21.75;21.00;;;;;18.84;58.96;101189.22;6277541;22;45485;-80
2023/06/07 04:46:19;;;;;;;;;25.50;21.25;;;;;19.02;59.37;101225.97;6277425;22;45185;-81
2023/06/07 04:48:44;;;;;;;;;25.25;24.75;;;;;18.95;59.48;101231.84;6249355;22;45249;-81
2023/06/07 04:51:13;;;;;;;;;23.75;21.25;;;;;18.87;59.74;101233.16;6277707;22;45400;-80
2023/06/07 04:53:39;;;;;;;;;24.50;23.75;;;;;18.56;60.15;101185.41;6249359;22;47486;-81
2023/06/07 04:56:04;;;;;;;;;26.75;23.50;;;;;18.68;59.60;101210.88;6249773;22;45639;-80
2023/06/07 04:58:31;;;;;;;;;27.50;24.25;;;;;18.50;59.83;101180.38;6250133;22;45379;-81
2023/06/07 05:00:57;;;;;;;;;28.00;26.50;;;;;18.80;60.16;101234.47;6277205;22;45257;-80
2023/06/07 05:03:22;;;;;;;;;23.25;22.00;;;;;18.55;60.30;101199.03;6249687;22;47062;-81
2023/06/07 05:05:48;;;;;;;;;27.50;24.00;;;;;18.65;60.37;101214.59;6277718;22;45357;-81
2023/06/07 05:08:14;;;;;;;;;26.50;22.25;;;;;18.45;60.34;101196.84;6277245;22;45308;-81
2023/06/07 05:10:40;;;;;;;;;19.00;18.50;;;;;18.67;60.20;101228.91;6276974;22;45430;-80
2023/06/07 05:13:05;;;;;;;;;23.50;20.00;;;;;18.45;60.15;101194.16;6277563;22;45236;-81
2023/06/07 05:15:31;;;;;;;;;26.50;26.00;;;;;18.61;60.49;101242.81;6277144;22;45342;-81
2023/06/07 05:17:58;;;;;;;;;26.00;22.75;;;;;18.37;60.89;101203.66;6249841;22;45330;-81
2023/06/07 05:20:26;;;;;;;;;28.00;25.50;;;;;18.43;60.75;101206.88;6249750;22;45911;-80
2023/06/07 05:22:52;;;;;;;;;21.00;18.75;;;;;18.33;60.72;101195.72;6277002;22;45358;-80
2023/06/07 05:25:17;;;;;;;;;27.50;25.00;;;;;18.46;61.16;101224.75;6249024;22;45469;-80
2023/06/07 05:27:43;;;;;;;;;29.50;25.00;;;;;18.31;61.47;101208.47;6249030;22;45437;-81
2023/06/07 05:30:09;;;;;;;;;29.00;25.25;;;;;18.29;61.11;101199.59;6277425;22;45451;-80
2023/06/07 05:32:36;;;;;;;;;24.75;21.25;;;;;18.32;61.22;101202.09;6277329;22;45248;-81
2023/06/07 05:35:02;;;;;;;;;30.25;25.50;;;;;18.31;61.00;101186.84;6249471;22;45888;-80
2023/06/07 05:37:29;;;;;;;;;24.00;24.00;;;;;18.55;60.84;101221.53;6249162;22;45249;-80
2023/06/07 05:39:54;;;;;;;;;31.00;29.00;;;;;18.56;61.38;101230.50;6277411;22;45334;-80
2023/06/07 05:42:20;;;;;;;;;29.75;28.50;;;;;18.51;61.53;101226.25;6249713;22;47096;-80
2023/06/07 05:44:48;;;;;;;;;31.75;29.00;;;;;18.35;61.02;101200.19;6276837;22;45326;-80
2023/06/07 05:47:15;;;;;;;;;23.50;22.50;;;;;18.23;61.53;101189.13;6276968;22;45402;-80
2023/06/07 05:49:43;;;;;;;;;29.50;23.75;;;;;18.24;61.31;101188.16;6249053;22;45238;-79
2023/06/07 05:52:08;;;;;;;;;32.50;28.50;;;;;18.26;61.49;101188.94;6276610;22;46268;-73
2023/06/07 07:19:32;;;;;;;;;34.25;29.50;;;;;18.90;63.06;101225.84;6258356;22;46304;-75
2023/06/07 07:21:57;;;;;;;;;31.00;27.00;;;;;19.07;62.60;101252.75;6276985;22;45688;-77
2023/06/07 07:24:22;;;;;;;;;32.00;29.25;;;;;19.08;62.75;101251.81;6276843;22;45265;-77
2023/06/07 07:26:48;;;;;;;;;30.25;26.75;;;;;19.16;63.03;101262.16;6274944;22;55948;-77
2023/06/07 07:29:14;;;;;;;;;25.00;23.75;;;;;19.11;63.82;101245.31;6277232;22;45227;-77
2023/06/07 07:31:39;;;;;;;;;33.75;31.75;;;;;19.23;63.02;101255.41;6277758;22;45143;-77
2023/06/07 07:34:05;;;;;;;;;35.75;27.50;;;;;19.24;63.39;101252.63;6277392;22;45693;-77
2023/06/07 07:36:33;;;;;;;;;25.50;24.00;;;;;19.12;63.54;101231.69;6276733;22;45342;-77
2023/06/07 07:38:59;;;;;;;;;32.50;28.50;;;;;19.27;63.51;101242.56;6277288;22;45302;-77
2023/06/07 07:41:28;;;;;;;;;27.75;23.50;;;;;19.34;62.47;101261.03;6277554;22;45232;-77
2023/06/07 07:43:53;;;;;;;;;29.25;26.00;;;;;19.34;62.74;101250.19;6277354;22;46660;-77
2023/06/07 07:46:18;;;;;;;;;25.00;24.00;;;;;19.34;62.53;101249.34;6276265;22;54403;-77
2023/06/07 07:48:44;;;;;;;;;25.50;25.25;;;;;19.38;62.44;101257.19;6277334;22;45275;-77
2023/06/07 07:51:09;;;;;;;;;28.50;27.00;;;;;19.43;62.61;101257.78;6277173;22;45428;-77
2023/06/07 07:53:35;;;;;;;;;31.00;27.50;;;;;19.46;62.20;101245.00;6276201;22;45192;-77
2023/06/07 07:56:01;;;;;;;;;31.50;28.25;;;;;19.51;62.03;101249.19;6276935;22;56526;-77
2023/06/07 07:58:26;;;;;;;;;26.25;24.75;;;;;19.51;61.50;101245.59;6276664;22;45197;-77
2023/06/07 08:00:52;;;;;;;;;29.00;27.75;;;;;19.58;62.09;101249.69;6276849;22;45204;-77
2023/06/07 08:03:18;;;;;;;;;26.75;25.75;;;;;19.61;61.90;101249.47;6276615;22;45371;-77
2023/06/07 08:05:43;;;;;;;;;27.50;25.50;;;;;19.65;61.69;101247.47;6277177;22;45202;-77
2023/06/07 08:08:09;;;;;;;;;26.50;24.25;;;;;19.65;61.89;101237.50;6277112;22;45373;-77
2023/06/07 08:10:34;;;;;;;;;28.00;23.25;;;;;19.65;62.12;101226.66;6276477;22;45715;-77
2023/06/07 08:13:00;;;;;;;;;23.25;22.25;;;;;19.77;61.64;101238.59;6275422;22;47313;-82
2023/06/07 08:15:25;;;;;;;;;30.75;28.00;;;;;19.73;61.91;101226.16;6276634;22;45254;-77
2023/06/07 08:17:50;;;;;;;;;24.75;22.75;;;;;19.85;61.79;101232.69;6277415;22;45198;-77
2023/06/07 08:20:16;;;;;;;;;23.75;22.25;;;;;19.88;61.56;101233.38;6276767;22;46555;-77
2023/06/07 08:22:42;;;;;;;;;20.75;20.00;;;;;19.86;60.97;101221.72;6277208;22;45370;-77
2023/06/07 08:25:09;;;;;;;;;27.00;23.50;;;;;20.00;61.20;101226.28;6275223;22;45677;-77
2023/06/07 08:27:34;;;;;;;;;20.00;19.25;;;;;20.16;60.68;101246.00;6277425;22;45279;-77
2023/06/07 08:30:00;;;;;;;;;23.75;23.00;;;;;20.23;60.69;101248.28;6277095;22;45184;-77
2023/06/07 08:32:25;;;;;;;;;22.50;22.25;;;;;20.32;61.05;101243.16;6276984;22;45975;-77
2023/06/07 08:34:50;;;;;;;;;17.25;15.25;;;;;20.42;60.98;101245.28;6277652;22;45192;-74
2023/06/07 08:37:16;;;;;;;;;24.00;23.75;;;;;20.54;60.84;101256.16;6275506;22;45215;-75
2023/06/07 08:39:41;;;;;;;;;26.75;23.50;;;;;20.63;59.95;101246.59;6276145;22;55152;-78
2023/06/07 08:42:07;;;;;;;;;22.25;20.50;;;;;20.75;59.86;101252.16;6276520;22;46044;-77
2023/06/07 08:44:32;;;;;;;;;23.50;23.00;;;;;20.81;59.29;101244.47;6277015;22;45279;-77
2023/06/07 08:47:00;;;;;;;;;20.50;18.75;;;;;20.88;58.56;101243.09;6277089;22;45182;-77
2023/06/07 08:49:28;;;;;;;;;21.25;20.25;;;;;20.96;58.81;101237.13;6276681;22;45275;-76
2023/06/07 08:51:57;;;;;;;;;20.75;20.25;;;;;20.88;58.72;101217.78;6275479;22;45258;-77
2023/06/07 08:54:26;;;;;;;;;22.00;22.00;;;;;21.10;58.18;101238.91;6277170;22;45394;-77
2023/06/07 08:56:54;;;;;;;;;23.00;20.50;;;;;21.22;57.99;101239.91;6276520;22;45321;-77
2023/06/07 08:59:20;;;;;;;;;22.25;21.25;;;;;21.31;57.02;101235.69;6275786;22;45156;-77
2023/06/07 09:01:45;;;;;;;;;21.25;20.25;;;;;21.37;57.78;101233.41;6275775;22;48056;-77
2023/06/07 09:04:11;;;;;;;;;23.75;21.50;;;;;21.46;57.57;101230.03;6277482;22;45206;-77
2023/06/07 09:06:37;;;;;;;;;22.25;21.00;;;;;21.53;57.32;101221.47;6275206;22;45302;-77
2023/06/07 09:09:04;;;;;;;;;17.75;17.00;;;;;21.53;56.82;101206.03;6276105;22;45288;-77
2023/06/07 09:11:30;;;;;;;;;25.50;21.75;;;;;21.73;56.65;101220.06;6276196;22;45708;-77
2023/06/07 09:13:56;;;;;;;;;20.25;19.00;;;;;21.77;56.45;101230.59;6276740;22;45231;-77
2023/06/07 09:16:22;;;;;;;;;18.25;16.75;;;;;21.83;56.55;101232.88;6276862;22;45218;-77
2023/06/07 09:18:55;;;;;;;;;16.50;16.50;;;;;21.90;56.40;101233.31;6276032;22;45435;-77
2023/06/07 09:21:23;;;;;;;;;23.75;22.50;;;;;21.95;55.82;101228.41;6277279;22;45446;-77
2023/06/07 09:23:53;;;;;;;;;22.00;18.25;;;;;22.01;55.98;101240.66;6276717;22;45511;-77
2023/06/07 09:26:22;;;;;;;;;18.75;18.75;;;;;22.00;56.34;101219.91;6275165;22;45377;-77
2023/06/07 09:28:48;;;;;;;;;20.25;19.25;;;;;22.08;55.88;101216.63;6276962;22;45384;-77
2023/06/07 09:31:28;;;;;;;;;26.50;24.00;;;;;22.25;55.52;101226.25;6277017;22;45339;-77
2023/06/07 09:33:54;;;;;;;;;22.25;17.75;;;;;22.26;54.84;101217.13;6275490;22;45301;-78
2023/06/07 09:36:20;;;;;;;;;22.00;21.50;;;;;22.33;54.59;101226.59;6275655;22;45270;-77
2023/06/07 09:38:45;;;;;;;;;6.50;6.50;;;;;22.35;54.42;101221.91;6276306;22;45225;-76
2023/06/07 09:41:12;;;;;;;;;21.25;19.50;;;;;22.41;54.93;101221.44;6276255;22;47360;-77
2023/06/07 09:43:56;;;;;;;;;20.00;18.75;;;;;22.47;54.63;101221.00;6272962;22;45337;-76
2023/06/07 09:46:21;;;;;;;;;18.25;17.75;;;;;22.58;53.88;101223.75;6277166;22;45311;-76
2023/06/07 09:48:48;;;;;;;;;23.75;21.25;;;;;22.68;54.09;101214.91;6279523;22;45279;-76
2023/06/07 09:51:13;;;;;;;;;18.75;16.50;;;;;22.76;53.98;101216.06;6279719;22;46425;-76
2023/06/07 09:54:03;;;;;;;;;25.50;21.75;;;;;22.84;53.89;101204.59;6278557;22;45187;-76
2023/06/07 09:56:28;;;;;;;;;20.25;19.25;;;;;22.86;53.53;101194.44;6279460;22;45163;-76
2023/06/07 09:59:07;;;;;;;;;22.50;20.75;;;;;22.92;53.45;101201.25;6280459;22;45426;-76
2023/06/07 10:01:35;;;;;;;;;22.25;22.25;;;;;22.98;53.19;101197.22;6280253;22;45559;-76
2023/06/07 10:04:02;;;;;;;;;19.50;18.75;;;;;22.99;53.07;101197.09;6280320;22;45463;-77
2023/06/07 10:06:34;;;;;;;;;23.50;20.00;;;;;23.07;52.67;101193.78;6279489;22;45266;-76
2023/06/07 10:09:03;;;;;;;;;19.75;17.25;;;;;23.15;52.68;101195.91;6280482;22;45148;-76
2023/06/07 10:11:31;;;;;;;;;20.75;20.25;;;;;23.21;52.60;101199.03;6279144;22;46961;-76
2023/06/07 10:13:59;;;;;;;;;20.75;19.50;;;;;23.21;52.37;101176.38;6279835;22;45508;-76
2023/06/07 10:16:29;;;;;;;;;19.50;17.50;;;;;23.33;52.28;101189.03;6278823;22;45473;-76
2023/06/07 10:18:59;;;;;;;;;18.25;18.25;;;;;23.32;51.76;101176.38;6278872;22;45385;-76
2023/06/07 10:21:26;;;;;;;;;22.00;22.00;;;;;23.33;51.57;101166.38;6279382;22;45173;-76
2023/06/07 10:23:59;;;;;;;;;19.75;19.00;;;;;23.46;51.67;101169.84;6278241;22;45227;-76
2023/06/07 10:26:34;;;;;;;;;20.25;19.25;;;;;23.59;51.41;101184.22;6278083;22;45453;-76
2023/06/07 10:29:11;;;;;;;;;23.25;20.25;;;;;23.66;51.28;101179.16;6278830;22;45406;-75
2023/06/07 10:31:43;;;;;;;;;21.75;20.75;;;;;23.72;51.73;101183.22;6279785;22;45226;-76
2023/06/07 10:34:10;;;;;;;;;21.75;21.75;;;;;23.76;51.12;101177.41;6279874;22;45482;-76
2023/06/07 10:36:38;;;;;;;;;20.75;18.75;;;;;23.82;51.42;101174.22;6279275;22;45459;-76
2023/06/07 10:39:06;;;;;;;;;19.25;18.50;;;;;23.87;51.84;101171.09;6279072;22;45420;-75
2023/06/07 10:41:33;;;;;;;;;19.00;18.75;;;;;23.96;51.34;101170.34;6279395;22;46040;-75
2023/06/07 10:44:01;;;;;;;;;19.00;18.50;;;;;23.92;50.54;101152.50;6279159;22;45380;-76
2023/06/07 10:46:27;;;;;;;;;24.00;21.75;;;;;24.07;50.82;101160.41;6279059;22;45283;-77
2023/06/07 10:48:54;;;;;;;;;15.75;15.75;;;;;24.04;50.45;101153.38;6279474;22;45397;-77
2023/06/07 10:51:59;;;;;;;;;22.50;19.00;;;;;24.20;49.69;101163.84;6276925;22;47967;-75
2023/06/07 10:54:32;;;;;;;;;21.00;20.50;;;;;24.25;49.14;101158.88;6278803;22;45184;-76
2023/06/07 10:57:05;;;;;;;;;14.50;14.50;;;;;24.30;48.99;101155.78;6279177;22;45324;-76
2023/06/07 10:59:30;;;;;;;;;19.25;18.25;;;;;24.34;48.17;101152.66;6276416;22;45442;-76
2023/06/07 11:02:19;;;;;;;;;21.00;19.00;;;;;24.43;47.75;101148.28;6277666;22;45148;-76
2023/06/07 11:04:58;;;;;;;;;18.25;18.25;;;;;24.53;48.10;101154.69;6277635;22;45296;-75
2023/06/07 11:07:31;;;;;;;;;17.00;15.25;;;;;24.60;47.02;101141.41;6275836;22;45265;-75
2023/06/07 11:10:02;;;;;;;;;17.00;16.25;;;;;24.67;46.71;101141.75;6277528;22;45207;-75
2023/06/07 11:12:46;;;;;;;;;19.75;18.00;;;;;24.75;46.87;101145.56;6278228;22;45356;-76
2023/06/07 11:15:17;;;;;;;;;19.75;19.00;;;;;24.81;47.17;101146.03;6277848;22;45164;-76
2023/06/07 11:17:53;;;;;;;;;17.50;17.50;;;;;24.82;45.91;101126.78;6278376;22;45249;-76
2023/06/07 11:20:37;;;;;;;;;17.00;17.00;;;;;24.99;46.64;101138.97;6275719;22;45401;-75
2023/06/07 11:23:19;;;;;;;;;18.25;17.25;;;;;25.08;46.18;101124.50;6277235;22;45328;-76
2023/06/07 11:25:44;;;;;;;;;18.25;18.00;;;;;25.11;46.27;101129.72;6276997;22;45230;-76
2023/06/07 11:28:11;;;;;;;;;16.25;16.25;;;;;25.20;45.21;101122.56;6278200;22;47537;-76
2023/06/07 11:30:37;;;;;;;;;17.75;17.75;;;;;25.27;44.82;101120.19;6277830;22;45329;-76
2023/06/07 11:33:03;;;;;;;;;19.75;17.00;;;;;25.31;44.55;101125.25;6277785;22;46008;-76
2023/06/07 11:35:30;;;;;;;;;16.50;16.50;;;;;25.33;44.53;101116.91;6276738;22;45254;-76
2023/06/07 11:37:56;;;;;;;;;15.25;14.25;;;;;25.41;43.63;101116.22;6278025;22;45193;-76
2023/06/07 11:40:21;;;;;;;;;15.75;15.75;;;;;25.39;42.88;101108.16;6275544;22;45389;-76
2023/06/07 11:42:46;;;;;;;;;18.75;17.50;;;;;25.45;42.85;101118.53;6277705;22;46068;-75
2023/06/07 11:45:13;;;;;;;;;20.00;18.50;;;;;25.44;42.97;101114.09;6274428;22;45110;-76
2023/06/07 11:47:38;;;;;;;;;16.00;15.75;;;;;25.50;42.29;101105.31;6276313;22;45413;-76
2023/06/07 11:50:04;;;;;;;;;15.75;15.00;;;;;25.55;42.04;101104.06;6277535;22;45180;-76
2023/06/07 11:52:30;;;;;;;;;10.25;10.25;;;;;25.56;42.67;101095.72;6274676;22;46340;-75
2023/06/07 11:54:55;;;;;;;;;17.25;17.25;;;;;25.60;41.72;101102.63;6276972;22;49884;-75
2023/06/07 11:57:22;;;;;;;;;18.50;16.00;;;;;25.65;41.98;101096.75;6277393;22;45266;-76
2023/06/07 11:59:50;;;;;;;;;20.75;18.50;;;;;25.68;41.59;101113.72;6276941;22;45265;-76
2023/06/07 12:02:16;;;;;;;;;12.25;12.25;;;;;25.79;41.53;101098.22;6277912;22;45210;-76
2023/06/07 12:04:43;;;;;;;;;15.50;14.25;;;;;25.78;41.32;101089.16;6277289;22;45189;-76
2023/06/07 12:07:19;;;;;;;;;18.00;17.25;;;;;25.97;41.31;101103.91;6276901;22;45278;-75
2023/06/07 12:09:45;;;;;;;;;16.50;14.50;;;;;25.99;40.89;101099.16;6277623;22;45223;-75
2023/06/07 12:12:14;;;;;;;;;18.75;17.00;;;;;26.02;40.51;101094.25;6275217;22;46337;-76
2023/06/07 12:14:40;;;;;;;;;15.25;15.25;;;;;26.06;40.12;101108.50;6276033;22;45367;-77
2023/06/07 12:17:06;;;;;;;;;15.25;15.25;;;;;26.12;40.77;101113.44;6276971;22;45334;-76
2023/06/07 12:19:31;;;;;;;;;15.00;15.00;;;;;26.14;39.96;101094.13;6277636;22;45202;-76
2023/06/07 12:22:05;;;;;;;;;18.75;16.25;;;;;26.22;40.29;101088.81;6275552;22;46192;-77
2023/06/07 12:24:30;;;;;;;;;16.25;16.25;;;;;26.24;40.68;101097.75;6277965;22;45394;-77
2023/06/07 12:26:56;;;;;;;;;16.75;16.75;;;;;26.31;39.65;101092.56;6274864;22;45399;-76
2023/06/07 12:29:29;;;;;;;;;14.75;13.75;;;;;26.30;39.66;101085.38;6276221;22;45167;-76
2023/06/07 12:31:55;;;;;;;;;14.25;12.75;;;;;26.36;39.69;101093.00;6275816;22;45239;-74
2023/06/07 12:34:27;;;;;;;;;13.25;13.00;;;;;26.36;39.52;101082.94;6275940;22;45411;-73
2023/06/07 12:36:53;;;;;;;;;15.25;14.25;;;;;26.41;39.56;101090.69;6301505;22;45363;-74